Time;durP1;ratioP1;P1;durP2;ratioP2;P2;SDS_P1;SDS_P2;PMS_P1;PMS_P2;Temp;Humidity;BMP_temperature;BMP_pressure;BME280_temperature;BME280_humidity;BME280_pressure;Samples;Min_cycle;Max_cycle;Signal;HPM_P1;HPM_P2
2022/08/01 00:01:56;;;;;;;10.05;4.00;;;19.00;61.70;;;;;;5072626;28;20028;-81
2022/08/01 00:04:22;;;;;;;8.40;4.40;;;19.00;62.10;;;;;;5065581;28;20024;-81
2022/08/01 00:06:48;;;;;;;8.95;4.22;;;19.00;62.10;;;;;;5068658;28;20021;-81
2022/08/01 00:09:14;;;;;;;5.32;3.65;;;18.90;62.40;;;;;;5072638;28;20013;-81
2022/08/01 00:11:41;;;;;;;9.55;4.28;;;18.80;62.70;;;;;;5072667;28;20031;-80
2022/08/01 00:14:09;;;;;;;;;;;18.80;62.70;;;;;;5074071;28;20013;-81
2022/08/01 00:16:35;;;;;;;8.73;4.53;;;18.80;62.20;;;;;;5055292;28;19948;-82
2022/08/01 00:19:01;;;;;;;6.15;3.80;;;18.70;63.10;;;;;;5072541;28;20115;-82
2022/08/01 00:21:27;;;;;;;7.72;3.70;;;18.70;63.30;;;;;;5072450;28;20037;-82
2022/08/01 00:23:52;;;;;;;9.40;4.55;;;18.70;63.30;;;;;;5066631;28;20045;-81
2022/08/01 00:26:18;;;;;;;7.97;4.03;;;18.70;63.30;;;;;;5072235;28;20108;-81
2022/08/01 00:28:44;;;;;;;8.23;4.22;;;18.70;63.20;;;;;;5072065;28;20445;-82
2022/08/01 00:31:11;;;;;;;8.05;4.60;;;18.80;63.10;;;;;;5072552;28;20083;-82
2022/08/01 00:33:37;;;;;;;7.72;4.35;;;18.80;62.90;;;;;;5090600;28;20033;-81
2022/08/01 00:36:03;;;;;;;10.07;4.45;;;18.80;62.70;;;;;;5071918;28;20012;-82
2022/08/01 00:38:30;;;;;;;11.57;4.75;;;18.80;62.60;;;;;;5072145;28;20469;-82
2022/08/01 00:40:56;;;;;;;8.35;4.47;;;18.80;62.60;;;;;;5054171;28;20028;-82
2022/08/01 00:43:21;;;;;;;7.32;4.60;;;18.80;62.70;;;;;;5072729;28;20367;-82
2022/08/01 00:45:47;;;;;;;8.15;4.78;;;18.70;62.60;;;;;;5054721;28;20539;-82
2022/08/01 00:48:13;;;;;;;11.88;4.45;;;18.70;63.20;;;;;;5072078;28;20021;-81
2022/08/01 00:50:39;;;;;;;9.65;5.10;;;18.70;62.50;;;;;;5070773;28;20082;-82
2022/08/01 00:53:06;;;;;;;9.43;4.80;;;18.70;62.70;;;;;;5072093;28;20016;-81
2022/08/01 00:55:32;;;;;;;9.82;4.90;;;18.70;62.90;;;;;;5071731;28;20029;-81
2022/08/01 00:57:58;;;;;;;8.75;4.68;;;18.70;62.90;;;;;;5071876;28;20068;-82
2022/08/01 01:00:24;;;;;;;12.68;5.35;;;18.60;62.90;;;;;;5074776;28;20028;-82
2022/08/01 01:02:50;;;;;;;11.88;4.82;;;18.60;62.90;;;;;;5077601;28;20028;-82
2022/08/01 01:05:16;;;;;;;11.60;4.63;;;18.60;63.10;;;;;;5075236;28;20082;-82
2022/08/01 01:07:55;;;;;;;6.75;4.07;;;18.60;63.20;;;;;;5071989;28;20024;-82
2022/08/01 01:10:23;;;;;;;7.95;3.45;;;18.60;63.10;;;;;;5071699;28;20031;-83
2022/08/01 01:12:55;;;;;;;;;;;18.60;63.10;;;;;;5072083;28;20458;-82
2022/08/01 01:15:41;;;;;;;7.95;4.40;;;18.60;62.70;;;;;;5071500;28;19912;-81
2022/08/01 01:18:22;;;;;;;7.00;3.65;;;18.50;63.20;;;;;;5053718;28;20040;-82
2022/08/01 01:21:34;;;;;;;13.68;3.70;;;18.50;63.30;;;;;;5071550;28;20386;-81
2022/08/01 01:24:41;;;;;;;5.35;3.42;;;18.50;63.30;;;;;;5035582;28;20050;-81
2022/08/01 01:27:24;;;;;;;7.75;3.67;;;18.50;63.90;;;;;;5029123;28;20513;-81
2022/08/01 01:29:55;;;;;;;8.55;3.65;;;18.40;63.70;;;;;;5029757;28;20025;-81
2022/08/01 01:32:37;;;;;;;6.28;3.83;;;18.40;64.00;;;;;;5029786;28;20044;-82
2022/08/01 01:35:08;;;;;;;6.07;3.88;;;18.40;64.00;;;;;;5030029;28;20363;-80
2022/08/01 01:37:36;;;;;;;5.72;3.83;;;18.50;64.10;;;;;;5030373;28;20096;-80
2022/08/01 01:40:04;;;;;;;8.98;3.90;;;18.50;64.10;;;;;;5035930;28;20063;-80
2022/08/01 01:42:31;;;;;;;7.85;4.43;;;18.50;64.10;;;;;;5033721;28;20391;-81
2022/08/01 01:44:58;;;;;;;;;;;18.40;64.20;;;;;;5034428;28;20061;-80
2022/08/01 01:47:25;;;;;;;7.73;4.30;;;18.40;63.80;;;;;;5030306;28;19978;-80
2022/08/01 01:49:54;;;;;;;8.93;3.92;;;18.40;64.50;;;;;;5030209;28;20017;-81
2022/08/01 01:52:21;;;;;;;7.65;4.32;;;18.30;64.70;;;;;;5029471;28;20041;-81
2022/08/01 01:54:50;;;;;;;10.45;4.57;;;18.30;64.90;;;;;;5029549;28;20069;-83
2022/08/01 01:57:18;;;;;;;5.68;3.95;;;18.30;65.30;;;;;;5038858;28;20063;-81
2022/08/01 01:59:45;;;;;;;8.20;4.28;;;18.20;65.20;;;;;;5074218;28;20028;-80
2022/08/01 02:02:14;;;;;;;8.57;4.35;;;18.20;65.20;;;;;;5075222;28;20029;-81
2022/08/01 02:04:45;;;;;;;8.68;4.90;;;18.20;65.30;;;;;;5075155;28;20020;-81
2022/08/01 02:07:17;;;;;;;10.05;4.43;;;18.20;66.00;;;;;;5075625;28;20024;-81
2022/08/01 02:09:45;;;;;;;7.05;4.07;;;18.20;65.40;;;;;;5075567;28;20025;-82
2022/08/01 02:12:12;;;;;;;9.65;3.90;;;18.20;65.70;;;;;;5075034;28;20021;-81
2022/08/01 02:14:39;;;;;;;10.05;4.65;;;18.20;65.60;;;;;;5074843;28;20103;-82
2022/08/01 02:17:06;;;;;;;8.68;4.45;;;18.30;65.80;;;;;;5057760;28;20764;-82
2022/08/01 02:19:35;;;;;;;10.75;4.70;;;18.30;65.80;;;;;;5091174;28;20374;-83
2022/08/01 02:22:05;;;;;;;7.38;3.92;;;18.30;65.70;;;;;;5075578;28;20107;-82
2022/08/01 02:24:54;;;;;;;11.73;4.88;;;18.30;65.70;;;;;;5073332;28;20048;-80
2022/08/01 02:27:34;;;;;;;7.30;4.15;;;18.40;65.60;;;;;;5074798;28;20443;-82
2022/08/01 02:30:06;;;;;;;8.18;4.75;;;18.40;65.50;;;;;;5074577;28;20021;-81
2022/08/01 02:32:41;;;;;;;5.88;3.90;;;18.40;65.30;;;;;;5074579;28;20025;-81
2022/08/01 02:35:19;;;;;;;9.40;4.05;;;18.50;65.00;;;;;;5074151;28;20016;-82
2022/08/01 02:37:47;;;;;;;7.05;4.25;;;18.60;65.00;;;;;;5074281;28;20036;-82
2022/08/01 02:40:14;;;;;;;9.07;4.47;;;18.60;64.90;;;;;;5074339;28;20058;-82
2022/08/01 02:42:45;;;;;;;8.90;4.13;;;18.70;65.20;;;;;;5074408;28;20490;-82
2022/08/01 02:45:12;;;;;;;7.97;3.67;;;18.70;65.20;;;;;;5074228;28;20272;-82
2022/08/01 02:47:42;;;;;;;8.40;4.32;;;18.70;64.40;;;;;;5074288;28;20033;-83
2022/08/01 02:50:12;;;;;;;8.85;4.72;;;18.80;64.80;;;;;;5074336;28;20032;-82
2022/08/01 02:52:39;;;;;;;10.23;4.43;;;18.90;64.50;;;;;;5074203;28;20378;-82
2022/08/01 02:55:07;;;;;;;9.55;5.00;;;19.00;64.10;;;;;;5077371;28;20016;-83
2022/08/01 02:57:33;;;;;;;11.43;5.15;;;19.10;63.10;;;;;;5074521;28;20028;-82
2022/08/01 03:00:00;;;;;;;9.30;4.47;;;19.20;63.20;;;;;;5074717;28;20162;-82
2022/08/01 03:02:27;;;;;;;15.13;5.45;;;19.30;63.10;;;;;;5074876;28;20056;-81
2022/08/01 03:04:54;;;;;;;11.10;4.95;;;19.40;62.90;;;;;;5077035;28;20451;-81
2022/08/01 03:07:21;;;;;;;15.10;5.13;;;19.40;62.30;;;;;;5081849;28;20509;-81
2022/08/01 03:09:48;;;;;;;10.50;4.75;;;19.40;62.30;;;;;;5079751;28;20012;-81
2022/08/01 03:12:18;;;;;;;8.00;4.78;;;19.50;62.80;;;;;;5082500;28;20374;-81
2022/08/01 03:14:47;;;;;;;9.15;4.45;;;19.50;62.20;;;;;;5079421;28;20036;-82
2022/08/01 03:17:16;;;;;;;10.63;4.88;;;19.50;62.40;;;;;;5073863;28;20032;-81
2022/08/01 03:19:45;;;;;;;9.52;5.10;;;19.60;62.30;;;;;;5073558;28;20038;-82
2022/08/01 03:22:14;;;;;;;7.30;4.50;;;19.70;61.80;;;;;;5073284;28;20017;-81
2022/08/01 03:24:42;;;;;;;11.77;4.78;;;19.70;61.90;;;;;;5055531;28;20028;-83
2022/08/01 03:27:09;;;;;;;9.75;4.82;;;19.80;61.80;;;;;;5073209;28;20017;-83
2022/08/01 03:29:37;;;;;;;10.98;5.13;;;19.80;61.50;;;;;;5073596;28;20028;-83
2022/08/01 03:32:03;;;;;;;;;;;19.90;61.50;;;;;;5073618;28;20028;-82
2022/08/01 03:34:30;;;;;;;10.77;5.25;;;19.90;61.40;;;;;;5073430;28;19939;-82
2022/08/01 03:37:17;;;;;;;16.70;5.55;;;20.00;61.60;;;;;;5073108;28;20067;-82
2022/08/01 03:40:12;;;;;;;9.73;5.70;;;20.10;61.80;;;;;;5073476;28;20027;-82
2022/08/01 03:42:45;;;;;;;9.60;5.43;;;20.10;61.30;;;;;;5068767;28;20032;-82
2022/08/01 03:45:24;;;;;;;13.30;5.90;;;20.20;61.20;;;;;;5073423;28;20650;-83
2022/08/01 03:47:59;;;;;;;9.65;5.68;;;20.20;61.10;;;;;;5089016;28;20764;-81
2022/08/01 03:50:26;;;;;;;10.35;5.40;;;20.30;61.20;;;;;;5074063;28;20032;-81
2022/08/01 03:52:54;;;;;;;18.13;6.65;;;20.30;60.80;;;;;;5073609;28;20078;-81
2022/08/01 03:55:22;;;;;;;12.77;6.30;;;20.40;61.00;;;;;;5073223;28;20032;-81
2022/08/01 03:57:49;;;;;;;15.63;9.52;;;20.50;60.90;;;;;;5073111;28;20402;-83
2022/08/01 04:00:18;;;;;;;12.95;6.85;;;20.60;60.90;;;;;;5072995;28;20052;-81
2022/08/01 04:02:49;;;;;;;14.35;5.85;;;20.60;60.30;;;;;;5072729;28;20528;-83
2022/08/01 04:05:16;;;;;;;9.55;5.90;;;20.70;60.60;;;;;;5073092;28;20021;-83
2022/08/01 04:07:47;;;;;;;11.73;5.60;;;20.80;60.20;;;;;;5072859;28;20450;-83
2022/08/01 04:10:13;;;;;;;11.50;5.82;;;20.90;60.20;;;;;;5072722;28;20481;-83
2022/08/01 04:12:39;;;;;;;10.00;5.63;;;20.90;59.80;;;;;;5073271;28;20074;-82
2022/08/01 04:15:06;;;;;;;8.38;6.15;;;20.90;59.60;;;;;;5072681;28;20016;-82
2022/08/01 04:17:32;;;;;;;13.20;5.68;;;21.00;59.30;;;;;;5072389;28;20099;-82
2022/08/01 04:19:58;;;;;;;8.57;4.85;;;21.10;59.00;;;;;;5072462;28;20100;-82
2022/08/01 04:22:24;;;;;;;10.95;5.43;;;21.10;58.80;;;;;;5072362;28;20131;-81
2022/08/01 04:24:55;;;;;;;13.75;5.32;;;21.10;58.30;;;;;;5076356;28;20478;-81
2022/08/01 04:27:29;;;;;;;9.07;4.95;;;21.20;58.30;;;;;;5072602;28;20032;-82
2022/08/01 04:29:58;;;;;;;12.48;5.50;;;21.30;57.90;;;;;;5072160;28;20016;-83
2022/08/01 04:32:27;;;;;;;15.00;5.15;;;21.30;58.40;;;;;;5054438;28;20469;-83
2022/08/01 04:34:57;;;;;;;13.55;4.82;;;21.40;57.70;;;;;;5072413;28;20103;-84
2022/08/01 04:37:25;;;;;;;8.85;4.30;;;21.50;57.40;;;;;;5071439;28;20123;-84
2022/08/01 04:39:54;;;;;;;7.93;4.57;;;21.60;57.50;;;;;;5072000;28;20021;-83
2022/08/01 04:42:20;;;;;;;7.22;5.25;;;21.60;57.30;;;;;;5071818;28;20023;-83
2022/08/01 04:44:46;;;;;;;11.10;5.72;;;21.60;56.80;;;;;;5072134;28;20074;-84
2022/08/01 04:47:13;;;;;;;12.32;5.43;;;21.70;57.00;;;;;;5072107;28;20016;-84
2022/08/01 04:49:42;;;;;;;11.43;5.88;;;21.80;56.90;;;;;;5054201;28;20420;-85
2022/08/01 04:52:08;;;;;;;12.98;5.72;;;21.90;56.60;;;;;;5071644;28;20480;-82
2022/08/01 04:54:38;;;;;;;9.93;6.03;;;21.90;56.60;;;;;;5071783;28;20028;-83
2022/08/01 04:57:05;;;;;;;10.70;5.80;;;22.00;56.50;;;;;;5067358;28;20486;-83
2022/08/01 04:59:41;;;;;;;12.88;5.85;;;22.10;56.50;;;;;;5071039;28;20140;-82
2022/08/01 05:02:07;;;;;;;16.00;5.72;;;22.40;56.10;;;;;;5071787;28;20024;-83
2022/08/01 05:04:33;;;;;;;9.98;5.10;;;23.00;55.40;;;;;;5071763;28;20469;-83
2022/08/01 05:06:59;;;;;;;11.07;5.07;;;23.90;53.90;;;;;;5071715;28;20015;-84
2022/08/01 05:09:26;;;;;;;15.27;5.27;;;24.90;51.80;;;;;;5071943;28;20100;-83
2022/08/01 05:11:51;;;;;;;8.57;5.07;;;25.60;49.80;;;;;;5071881;28;20024;-84
2022/08/01 05:14:17;;;;;;;9.60;5.40;;;26.40;48.80;;;;;;5071908;28;20029;-86
2022/08/01 05:16:44;;;;;;;13.77;6.22;;;27.20;47.10;;;;;;5074417;28;20016;-83
2022/08/01 05:19:10;;;;;;;10.98;5.53;;;27.90;45.90;;;;;;5072092;28;20039;-83
2022/08/01 05:21:37;;;;;;;13.98;5.22;;;28.50;44.80;;;;;;5071373;28;20476;-83
2022/08/01 05:24:03;;;;;;;;;;;29.20;43.80;;;;;;5071787;28;20040;-84
2022/08/01 05:26:29;;;;;;;10.75;5.10;;;29.80;44.80;;;;;;5053536;28;19916;-83
2022/08/01 05:28:55;;;;;;;9.50;4.60;;;30.20;42.20;;;;;;5053673;28;20067;-83
2022/08/01 05:31:21;;;;;;;7.97;4.88;;;;;;;;;;5078136;28;20370;-81
2022/08/01 05:33:47;;;;;;;13.40;4.57;;;31.10;40.70;;;;;;5077729;28;20024;-82
2022/08/01 05:36:12;;;;;;;9.77;4.55;;;31.40;40.40;;;;;;5077757;28;20119;-81
2022/08/01 05:38:38;;;;;;;11.05;4.65;;;31.50;40.10;;;;;;5059550;28;20035;-80
2022/08/01 05:41:04;;;;;;;7.88;3.78;;;31.50;39.30;;;;;;5077786;28;20016;-80
2022/08/01 05:43:30;;;;;;;12.13;4.97;;;31.90;39.60;;;;;;5077893;28;20031;-81
2022/08/01 05:45:58;;;;;;;7.97;4.17;;;32.40;38.50;;;;;;5078007;28;20028;-81
2022/08/01 05:48:24;;;;;;;11.50;4.70;;;32.90;37.90;;;;;;5059818;28;20017;-81
2022/08/01 05:50:50;;;;;;;9.30;4.72;;;33.40;37.40;;;;;;5077795;28;20025;-81
2022/08/01 05:53:16;;;;;;;7.43;3.20;;;33.80;37.10;;;;;;5077291;28;20036;-81
2022/08/01 05:55:42;;;;;;;20.02;4.47;;;34.20;36.40;;;;;;5077493;28;20031;-82
2022/08/01 05:58:08;;;;;;;11.23;3.90;;;34.60;36.10;;;;;;5077583;28;20111;-82
2022/08/01 06:00:34;;;;;;;9.03;3.70;;;35.10;36.00;;;;;;5078011;28;20389;-82
2022/08/01 06:03:00;;;;;;;12.90;3.47;;;35.60;34.60;;;;;;5077756;28;20406;-83
2022/08/01 06:05:26;;;;;;;7.73;4.00;;;36.20;34.70;;;;;;5078174;28;20032;-81
2022/08/01 06:07:52;;;;;;;9.32;2.75;;;36.90;33.80;;;;;;5059780;28;20024;-81
2022/08/01 06:10:18;;;;;;;25.08;4.75;;;37.20;32.70;;;;;;5077673;28;20475;-82
2022/08/01 06:12:43;;;;;;;10.77;3.07;;;37.60;32.70;;;;;;5059721;28;20515;-83
2022/08/01 06:15:10;;;;;;;15.27;5.07;;;37.90;32.30;;;;;;5076947;28;20017;-82
2022/08/01 06:17:36;;;;;;;11.65;3.70;;;38.40;32.30;;;;;;5077073;28;20568;-79
2022/08/01 06:20:02;;;;;;;7.65;3.72;;;38.50;31.80;;;;;;5077837;28;20032;-82
2022/08/01 06:22:28;;;;;;;9.70;2.60;;;38.00;31.70;;;;;;5080895;28;20044;-82
2022/08/01 06:24:54;;;;;;;5.73;2.93;;;37.20;32.00;;;;;;5078078;28;20064;-82
2022/08/01 06:27:20;;;;;;;3.97;1.80;;;36.60;33.00;;;;;;5078662;28;20477;-81
2022/08/01 06:29:45;;;;;;;5.85;2.30;;;36.30;32.10;;;;;;5078718;28;20028;-81
2022/08/01 06:32:11;;;;;;;4.93;2.00;;;35.80;32.50;;;;;;5079283;28;20024;-81
2022/08/01 06:34:37;;;;;;;5.67;1.80;;;35.30;33.20;;;;;;5078626;28;20081;-80
2022/08/01 06:37:03;;;;;;;5.67;2.17;;;35.50;33.20;;;;;;5078495;28;20520;-82
2022/08/01 06:39:29;;;;;;;4.10;1.73;;;36.50;33.00;;;;;;5079594;28;20383;-85
2022/08/01 06:41:54;;;;;;;4.53;1.87;;;37.20;31.70;;;;;;5075829;28;20673;-83
2022/08/01 06:44:20;;;;;;;5.40;1.90;;;37.80;31.30;;;;;;5075607;28;20024;-83
2022/08/01 06:46:46;;;;;;;7.07;2.22;;;38.10;31.10;;;;;;5074734;28;20040;-83
2022/08/01 06:49:12;;;;;;;7.40;2.70;;;38.70;30.60;;;;;;5074765;28;20059;-85
2022/08/01 06:51:38;;;;;;;4.53;2.30;;;39.20;30.40;;;;;;5075426;28;20024;-85
2022/08/01 06:54:03;;;;;;;7.22;2.22;;;40.10;30.30;;;;;;5056637;28;20444;-87
2022/08/01 06:56:29;;;;;;;3.70;1.90;;;40.50;29.80;;;;;;5057193;28;20024;-88
2022/08/01 06:59:00;;;;;;;4.32;1.90;;;40.80;29.30;;;;;;5074563;28;20072;-88
2022/08/01 07:01:27;;;;;;;6.85;2.25;;;39.60;29.30;;;;;;5075591;28;20055;-86
2022/08/01 07:03:54;;;;;;;7.60;2.85;;;39.10;30.00;;;;;;5075735;28;20029;-87
2022/08/01 07:06:20;;;;;;;;;;;39.60;29.90;;;;;;5075215;28;20021;-88
2022/08/01 07:08:46;;;;;;;5.25;3.13;;;39.90;30.40;;;;;;5074808;28;19913;-87
2022/08/01 07:11:12;;;;;;;5.03;2.83;;;;;;;;;;5074356;28;20070;-85
2022/08/01 07:13:38;;;;;;;4.50;2.08;;;;;;;;;;5057040;28;20032;-87
2022/08/01 07:16:04;;;;;;;;;;;;;;;;;;5073851;28;20037;-88
2022/08/01 07:18:30;;;;;;;4.55;2.03;;;;;;;;;;5073783;28;19923;-86
2022/08/01 07:20:56;;;;;;;5.55;2.30;;;;;;;;;;5056961;28;20362;-87
2022/08/01 07:23:22;;;;;;;3.67;2.25;;;;;;;;;;5074617;28;20063;-87
2022/08/01 07:25:50;;;;;;;;;;;;;;;;;;5075480;28;20017;-87
2022/08/01 07:28:16;;;;;;;3.78;1.95;;;;;;;;;;5090412;28;19909;-87
2022/08/01 07:30:44;;;;;;;4.70;2.35;;;;;;;;;;5075180;28;20031;-87
2022/08/01 07:33:10;;;;;;;5.90;2.38;;;;;;;;;;5074587;28;20028;-88
2022/08/01 07:35:38;;;;;;;;;;;;;;;;;;5077484;28;20037;-87
2022/08/01 07:38:04;;;;;;;4.88;2.75;;;;;;;;;;5076070;28;19912;-86
2022/08/01 07:40:31;;;;;;;5.40;2.58;;;;;;;;;;5074257;28;20036;-88
2022/08/01 07:42:57;;;;;;;6.70;2.80;;;;;;;;;;5055999;28;20060;-85
2022/08/01 07:45:23;;;;;;;4.78;2.47;;;;;;;;;;5074161;28;20094;-85
2022/08/01 07:47:49;;;;;;;;;;;;;;;;;;5074905;28;20024;-87
2022/08/01 07:50:16;;;;;;;6.82;2.50;;;;;;;;;;5073324;28;19913;-86
2022/08/01 07:52:43;;;;;;;9.90;2.47;;;;;;;;;;5073119;28;20017;-88
2022/08/01 07:55:10;;;;;;;8.52;2.60;;;;;;;;;;5073024;28;20020;-86
2022/08/01 07:57:36;;;;;;;7.82;2.45;;;;;;;;;;5073308;28;20072;-88
2022/08/01 08:00:03;;;;;;;;;;;;;;;;;;5056083;28;20043;-88
2022/08/01 08:02:29;;;;;;;3.83;2.35;;;40.70;29.40;;;;;;5074352;28;20430;-86
2022/08/01 08:04:54;;;;;;;3.78;2.17;;;40.60;29.40;;;;;;5073210;28;20024;-86
2022/08/01 08:07:20;;;;;;;8.20;2.70;;;40.30;29.60;;;;;;5072368;28;20036;-86
2022/08/01 08:09:46;;;;;;;4.95;2.15;;;40.20;29.50;;;;;;5072887;28;20040;-89
2022/08/01 08:12:12;;;;;;;5.95;2.30;;;40.20;29.70;;;;;;5073496;28;20036;-85
2022/08/01 08:14:38;;;;;;;14.07;4.18;;;40.50;29.60;;;;;;5072626;28;20035;-85
2022/08/01 08:17:04;;;;;;;;;;;40.90;29.40;;;;;;5073964;28;20031;-86
2022/08/01 08:19:33;;;;;;;5.97;2.75;;;41.20;29.60;;;;;;5073057;28;19912;-86
2022/08/01 08:22:01;;;;;;;3.88;2.25;;;39.50;29.50;;;;;;5072141;28;20047;-86
2022/08/01 08:24:27;;;;;;;4.38;1.98;;;39.00;30.00;;;;;;5072862;28;20044;-86
2022/08/01 08:26:56;;;;;;;4.88;2.25;;;39.50;30.00;;;;;;5072706;28;20029;-86
2022/08/01 08:29:25;;;;;;;5.57;2.45;;;40.40;29.30;;;;;;5072794;28;20127;-86
2022/08/01 08:31:52;;;;;;;6.82;3.08;;;39.20;29.70;;;;;;5054990;28;20430;-87
2022/08/01 08:34:18;;;;;;;5.78;3.15;;;39.40;29.90;;;;;;5073224;28;20104;-84
2022/08/01 08:36:44;;;;;;;5.30;2.50;;;39.90;29.70;;;;;;5072373;28;20032;-87
2022/08/01 08:39:10;;;;;;;7.30;2.80;;;39.50;29.30;;;;;;5072424;28;20382;-86
2022/08/01 08:41:36;;;;;;;4.88;2.20;;;39.30;30.00;;;;;;5073313;28;20100;-86
2022/08/01 08:44:03;;;;;;;5.90;2.15;;;40.00;29.40;;;;;;5072848;28;20021;-86
2022/08/01 08:46:32;;;;;;;3.55;2.50;;;;;;;;;;5055843;28;20024;-87
2022/08/01 08:48:59;;;;;;;3.92;2.15;;;;;;;;;;5074209;28;20029;-85
2022/08/01 08:51:26;;;;;;;8.02;2.72;;;42.40;27.70;;;;;;5074162;28;20091;-86
2022/08/01 08:53:55;;;;;;;6.75;2.88;;;42.20;28.20;;;;;;5057632;28;20020;-86
2022/08/01 08:56:23;;;;;;;7.70;3.60;;;;;;;;;;5072716;28;20032;-86
2022/08/01 08:58:52;;;;;;;4.60;2.83;;;42.40;28.50;;;;;;5073226;28;20040;-86
2022/08/01 09:01:18;;;;;;;4.97;2.47;;;43.10;28.10;;;;;;5073577;28;20099;-85
2022/08/01 09:03:44;;;;;;;4.53;2.08;;;43.30;27.80;;;;;;5073090;28;20024;-84
2022/08/01 09:06:11;;;;;;;7.68;2.60;;;43.90;27.10;;;;;;5074056;28;20466;-87
2022/08/01 09:08:37;;;;;;;6.85;2.22;;;;;;;;;;5075897;28;20029;-84
2022/08/01 09:11:03;;;;;;;6.90;2.50;;;41.70;26.90;;;;;;5079964;28;20532;-87
2022/08/01 09:13:29;;;;;;;3.90;2.67;;;41.10;28.70;;;;;;5086724;28;20020;-85
2022/08/01 09:15:59;;;;;;;3.05;2.20;;;42.40;28.30;;;;;;5086019;28;20020;-86
2022/08/01 09:18:33;;;;;;;5.20;2.28;;;43.90;27.60;;;;;;5083429;28;20029;-85
2022/08/01 09:21:13;;;;;;;2.80;2.30;;;44.90;27.10;;;;;;5060304;28;20024;-85
2022/08/01 09:23:51;;;;;;;4.90;2.30;;;45.50;27.40;;;;;;5074053;28;20114;-85
2022/08/01 09:26:21;;;;;;;6.72;2.65;;;45.50;26.50;;;;;;5073912;28;20382;-87
2022/08/01 09:28:50;;;;;;;3.42;2.30;;;45.50;26.40;;;;;;5089459;28;20016;-85
2022/08/01 09:31:18;;;;;;;4.53;2.20;;;45.60;26.80;;;;;;5057855;28;20167;-86
2022/08/01 09:33:52;;;;;;;3.08;2.08;;;45.50;26.50;;;;;;5060198;28;20477;-86
2022/08/01 09:36:19;;;;;;;3.65;1.90;;;45.70;25.70;;;;;;5077914;28;20386;-86
2022/08/01 09:38:45;;;;;;;4.55;2.13;;;44.60;25.80;;;;;;5074453;28;20482;-85
2022/08/01 09:41:11;;;;;;;3.22;1.75;;;44.80;26.20;;;;;;5071650;28;20449;-87
2022/08/01 09:43:38;;;;;;;4.72;1.95;;;45.20;25.80;;;;;;5071570;28;20086;-87
2022/08/01 09:46:11;;;;;;;4.30;2.03;;;;;;;;;;5072007;28;20020;-85
2022/08/01 09:48:39;;;;;;;6.38;2.30;;;;;;;;;;5052522;28;20035;-85
2022/08/01 09:51:06;;;;;;;4.45;1.65;;;;;;;;;;5071999;28;20100;-87
2022/08/01 09:53:47;;;;;;;4.35;2.55;;;45.40;25.90;;;;;;5073119;28;20021;-87
2022/08/01 09:56:13;;;;;;;3.50;2.05;;;42.50;27.00;;;;;;5061704;28;20013;-86
2022/08/01 09:58:51;;;;;;;3.65;2.03;;;43.00;26.90;;;;;;5073242;28;20423;-86
2022/08/01 10:01:23;;;;;;;2.80;1.67;;;43.50;26.70;;;;;;5073643;28;20027;-86
2022/08/01 10:04:11;;;;;;;4.82;2.10;;;43.40;26.40;;;;;;5075787;28;20027;-87
2022/08/01 10:06:38;;;;;;;5.57;2.33;;;41.30;27.10;;;;;;5055379;28;20021;-88
2022/08/01 10:09:04;;;;;;;4.80;2.10;;;40.40;27.40;;;;;;5072292;28;20144;-86
2022/08/01 10:11:32;;;;;;;2.53;1.80;;;40.00;27.90;;;;;;5072015;28;20025;-87
2022/08/01 10:13:59;;;;;;;6.00;2.22;;;39.60;28.30;;;;;;5071872;28;20035;-86
2022/08/01 10:16:28;;;;;;;2.83;2.22;;;39.10;28.70;;;;;;5076501;28;20474;-87
2022/08/01 10:18:54;;;;;;;5.90;2.30;;;38.80;29.10;;;;;;5080516;28;20032;-86
2022/08/01 10:21:22;;;;;;;2.33;1.60;;;37.90;29.30;;;;;;5081606;28;20032;-85
2022/08/01 10:23:52;;;;;;;6.50;2.70;;;36.80;29.40;;;;;;5080555;28;20059;-84
2022/08/01 10:26:18;;;;;;;4.95;2.35;;;36.50;30.50;;;;;;5080845;28;20039;-86
2022/08/01 10:28:47;;;;;;;4.57;2.17;;;36.10;30.20;;;;;;5058027;28;20016;-86
2022/08/01 10:31:13;;;;;;;2.83;2.35;;;35.50;31.20;;;;;;5075852;28;20081;-85
2022/08/01 10:33:41;;;;;;;3.40;2.50;;;34.90;31.50;;;;;;5075639;28;20089;-85
2022/08/01 10:36:10;;;;;;;6.13;2.40;;;33.50;32.20;;;;;;5082675;28;20025;-88
2022/08/01 10:38:36;;;;;;;4.28;2.70;;;;;;;;;;5078256;28;20055;-87
2022/08/01 10:41:04;;;;;;;4.43;2.60;;;32.90;33.30;;;;;;5074654;28;20012;-87
2022/08/01 10:43:30;;;;;;;3.08;2.70;;;32.00;34.20;;;;;;5074661;28;20079;-87
2022/08/01 10:45:56;;;;;;;6.20;3.22;;;31.00;35.40;;;;;;5074973;28;20039;-85
2022/08/01 10:48:43;;;;;;;6.63;2.97;;;30.50;36.20;;;;;;5075195;28;20048;-86
2022/08/01 10:51:09;;;;;;;3.28;2.60;;;30.60;36.40;;;;;;5062076;28;20024;-88
2022/08/01 10:53:35;;;;;;;6.18;3.42;;;30.50;35.90;;;;;;5057039;28;20107;-86
2022/08/01 10:56:03;;;;;;;4.72;2.30;;;29.70;36.90;;;;;;5074548;28;20025;-86
2022/08/01 10:58:29;;;;;;;5.35;2.60;;;29.20;37.20;;;;;;5075544;28;20119;-86
2022/08/01 11:01:26;;;;;;;6.88;3.10;;;29.10;37.40;;;;;;5078371;28;20048;-84
2022/08/01 11:04:09;;;;;;;5.07;2.28;;;28.60;37.60;;;;;;5076770;28;20036;-86
2022/08/01 11:06:34;;;;;;;3.22;2.53;;;28.30;38.10;;;;;;5057628;28;20019;-86
2022/08/01 11:09:04;;;;;;;5.80;2.63;;;28.60;37.70;;;;;;5075690;28;20025;-87
2022/08/01 11:11:30;;;;;;;6.88;3.70;;;28.80;37.60;;;;;;5074651;28;20028;-85
2022/08/01 11:14:12;;;;;;;5.57;2.83;;;28.90;37.90;;;;;;5057218;28;20127;-87
2022/08/01 11:16:40;;;;;;;4.35;2.30;;;29.00;36.90;;;;;;5074981;28;20101;-86
2022/08/01 11:19:08;;;;;;;3.95;2.25;;;28.90;37.00;;;;;;5075306;28;20036;-86
2022/08/01 11:21:52;;;;;;;5.95;2.92;;;28.80;37.70;;;;;;5074668;28;20021;-88
2022/08/01 11:24:46;;;;;;;8.75;3.33;;;28.90;37.60;;;;;;5075139;28;20044;-86
2022/08/01 11:27:24;;;;;;;6.55;3.90;;;28.90;37.50;;;;;;5077727;28;20024;-88
2022/08/01 11:30:08;;;;;;;3.60;2.28;;;29.00;37.70;;;;;;5068126;28;20449;-86
2022/08/01 11:32:47;;;;;;;5.03;3.00;;;29.10;37.50;;;;;;5062087;28;20063;-87
2022/08/01 11:35:14;;;;;;;3.92;2.90;;;29.00;36.90;;;;;;5056314;28;20043;-88
2022/08/01 11:37:40;;;;;;;5.43;3.17;;;28.90;36.80;;;;;;5073955;28;20095;-86
2022/08/01 11:40:25;;;;;;;4.13;2.60;;;28.80;37.50;;;;;;5073940;28;20037;-86
2022/08/01 11:43:16;;;;;;;6.68;3.15;;;28.80;37.80;;;;;;5074346;28;20695;-87
2022/08/01 11:45:50;;;;;;;6.63;2.67;;;28.80;38.40;;;;;;5067086;28;20064;-87
2022/08/01 11:48:24;;;;;;;5.35;2.65;;;28.80;37.50;;;;;;5074379;28;20024;-86
2022/08/01 11:50:51;;;;;;;14.55;8.38;;;28.80;37.80;;;;;;5074669;28;20024;-87
2022/08/01 11:53:19;;;;;;;7.25;3.17;;;28.80;38.40;;;;;;5074278;28;20496;-88
2022/08/01 11:55:50;;;;;;;4.13;3.05;;;28.60;38.20;;;;;;5074518;28;20527;-88
2022/08/01 11:58:22;;;;;;;3.25;2.65;;;28.60;38.30;;;;;;5074511;28;20119;-87
2022/08/01 12:00:52;;;;;;;7.22;2.65;;;28.60;38.10;;;;;;5073549;28;20051;-87
2022/08/01 12:03:28;;;;;;;3.72;2.65;;;28.60;38.40;;;;;;5074909;28;20108;-89
2022/08/01 12:05:55;;;;;;;6.00;2.72;;;28.60;38.20;;;;;;5078514;28;20505;-86
2022/08/01 12:08:34;;;;;;;6.15;3.00;;;28.50;38.40;;;;;;5059968;28;20705;-90
2022/08/01 12:11:03;;;;;;;5.78;3.47;;;28.40;38.70;;;;;;5078246;28;20032;-88
2022/08/01 12:13:40;;;;;;;3.75;2.67;;;28.30;39.10;;;;;;5058225;28;20033;-88
2022/08/01 12:16:10;;;;;;;6.32;3.40;;;28.00;39.00;;;;;;5076627;28;20024;-88
2022/08/01 12:18:43;;;;;;;5.45;3.50;;;27.90;39.00;;;;;;5051249;28;20148;-90
2022/08/01 12:21:09;;;;;;;8.57;3.63;;;27.90;39.40;;;;;;5095637;28;20020;-88
2022/08/01 12:23:35;;;;;;;4.85;3.60;;;27.90;39.80;;;;;;5056422;28;20051;-88
2022/08/01 12:26:03;;;;;;;9.57;3.55;;;27.80;39.80;;;;;;5075184;28;20024;-88
2022/08/01 12:28:29;;;;;;;4.85;2.63;;;27.70;39.80;;;;;;5082153;28;20381;-86
2022/08/01 12:30:55;;;;;;;5.10;3.53;;;27.70;39.80;;;;;;5061359;28;20024;-88
2022/08/01 12:33:21;;;;;;;6.75;2.92;;;27.60;40.50;;;;;;5080208;28;20039;-90
2022/08/01 12:35:47;;;;;;;9.35;3.42;;;27.50;40.20;;;;;;5079977;28;20028;-88
2022/08/01 12:38:18;;;;;;;5.57;2.78;;;27.40;40.40;;;;;;5080397;28;20043;-88
2022/08/01 12:40:47;;;;;;;8.70;3.13;;;27.30;40.50;;;;;;5055759;28;20086;-87
2022/08/01 12:43:18;;;;;;;8.18;2.97;;;27.20;40.70;;;;;;5073636;28;20020;-87
2022/08/01 12:45:48;;;;;;;6.03;2.80;;;27.20;40.50;;;;;;5073555;28;20440;-87
2022/08/01 12:48:16;;;;;;;4.10;2.83;;;27.10;40.40;;;;;;5073422;28;20028;-89
2022/08/01 12:50:45;;;;;;;3.88;2.75;;;27.10;40.50;;;;;;5073124;28;20031;-88
2022/08/01 12:53:14;;;;;;;6.03;2.85;;;26.90;40.20;;;;;;5072105;28;20012;-86
2022/08/01 12:55:51;;;;;;;7.43;3.03;;;26.80;40.40;;;;;;5072508;28;20374;-86
2022/08/01 12:58:18;;;;;;;6.07;3.13;;;26.80;41.20;;;;;;5072643;28;20401;-88
2022/08/01 13:00:47;;;;;;;5.90;3.58;;;26.80;41.60;;;;;;5087622;28;20062;-87
2022/08/01 13:03:15;;;;;;;11.07;3.25;;;26.80;41.60;;;;;;5072997;28;20020;-86
2022/08/01 13:05:46;;;;;;;6.68;2.38;;;26.90;41.60;;;;;;5073070;28;20073;-87
2022/08/01 13:08:23;;;;;;;5.80;2.92;;;26.80;41.30;;;;;;5073569;28;20461;-87